createdAt,value
2017-08-28T00:01:10.423Z,34.43
2017-08-28T00:03:37.999Z,33.33
2017-08-28T00:06:06.198Z,32.80
2017-08-28T00:08:33.812Z,33.43
2017-08-28T00:11:01.396Z,33.93
2017-08-28T00:13:28.976Z,35.17
2017-08-28T00:15:57.499Z,34.77
2017-08-28T00:18:25.083Z,35.77
2017-08-28T00:20:52.670Z,45.73
2017-08-28T00:23:20.274Z,37.00
2017-08-28T00:25:47.867Z,38.03
2017-08-28T00:28:15.447Z,38.70
2017-08-28T00:30:43.061Z,38.80
2017-08-28T00:33:11.051Z,40.67
2017-08-28T00:35:38.624Z,37.67
2017-08-28T00:38:06.220Z,41.00
2017-08-28T00:40:33.803Z,42.47
2017-08-28T00:43:01.394Z,40.50
2017-08-28T00:45:28.983Z,41.80
2017-08-28T00:47:56.561Z,44.93
2017-08-28T00:50:24.164Z,46.87
2017-08-28T00:52:51.751Z,44.40
2017-08-28T00:55:19.336Z,47.83
2017-08-28T00:57:46.933Z,47.57
2017-08-28T01:00:14.741Z,51.10
2017-08-28T01:02:42.354Z,48.53
2017-08-28T01:05:09.944Z,50.07
2017-08-28T01:07:38.218Z,52.70
2017-08-28T01:10:05.773Z,47.70
2017-08-28T01:12:33.338Z,49.83
2017-08-28T01:15:00.925Z,54.93
2017-08-28T01:17:28.507Z,52.20
2017-08-28T01:19:56.075Z,52.30
2017-08-28T01:22:23.687Z,49.90
2017-08-28T01:24:51.254Z,56.20
2017-08-28T01:27:18.830Z,49.93
2017-08-28T01:29:46.390Z,56.73
2017-08-28T01:32:14.017Z,55.23
2017-08-28T01:34:41.598Z,58.10
2017-08-28T01:37:09.172Z,52.83
2017-08-28T01:39:36.773Z,56.80
2017-08-28T01:42:04.413Z,57.13
2017-08-28T01:44:31.996Z,55.43
2017-08-28T01:46:59.579Z,52.80
2017-08-28T01:49:27.154Z,53.07
2017-08-28T01:51:54.710Z,51.10
2017-08-28T01:54:22.302Z,53.70
2017-08-28T01:56:49.870Z,54.43
2017-08-28T01:59:17.450Z,59.33
2017-08-28T02:01:45.007Z,50.87
2017-08-28T02:04:12.599Z,51.00
2017-08-28T02:06:40.205Z,57.20
2017-08-28T02:09:07.799Z,56.27
2017-08-28T02:11:35.400Z,55.73
2017-08-28T02:14:03.005Z,55.57
2017-08-28T02:16:30.602Z,59.13
2017-08-28T02:18:58.163Z,59.67
2017-08-28T02:21:25.775Z,56.20
2017-08-28T02:23:53.374Z,60.57
2017-08-28T02:26:20.974Z,63.93
2017-08-28T02:28:48.583Z,56.90
2017-08-28T02:31:16.181Z,58.80
2017-08-28T02:33:43.779Z,59.27
2017-08-28T02:36:11.357Z,65.50
2017-08-28T02:38:39.857Z,64.93
2017-08-28T02:41:07.455Z,66.00
2017-08-28T02:43:35.031Z,60.13
2017-08-28T02:46:02.824Z,54.20
2017-08-28T02:48:30.424Z,62.47
2017-08-28T02:50:58.022Z,59.80
2017-08-28T02:53:25.614Z,61.70
2017-08-28T02:55:53.223Z,56.17
2017-08-28T02:58:20.805Z,59.00
2017-08-28T03:00:48.394Z,64.80
2017-08-28T03:03:15.972Z,56.10
2017-08-28T03:05:43.543Z,58.77
2017-08-28T03:08:11.142Z,58.33
2017-08-28T03:10:39.597Z,55.03
2017-08-28T03:13:07.170Z,55.73
2017-08-28T03:15:34.763Z,56.70
2017-08-28T03:18:02.342Z,58.03
2017-08-28T03:20:29.921Z,52.67
2017-08-28T03:22:57.493Z,52.80
2017-08-28T03:25:25.106Z,56.73
2017-08-28T03:27:52.671Z,51.20
2017-08-28T03:30:21.025Z,51.77
2017-08-28T03:32:48.619Z,51.03
2017-08-28T03:35:16.220Z,49.67
2017-08-28T03:37:43.845Z,48.40
2017-08-28T03:40:11.405Z,49.00
2017-08-28T03:42:39.050Z,47.87
2017-08-28T03:45:06.669Z,51.50
2017-08-28T03:47:34.272Z,45.63
2017-08-28T03:50:01.855Z,47.80
2017-08-28T03:52:29.441Z,49.70
2017-08-28T03:54:57.015Z,49.63
2017-08-28T03:57:24.598Z,49.50
2017-08-28T03:59:52.199Z,47.37
2017-08-28T04:02:19.792Z,47.90
2017-08-28T04:04:47.419Z,46.83
2017-08-28T04:07:14.998Z,45.07
2017-08-28T04:09:42.629Z,46.10
2017-08-28T04:12:10.228Z,50.00
2017-08-28T04:14:37.845Z,50.10
2017-08-28T04:17:05.429Z,55.63
2017-08-28T04:19:33.003Z,44.57
2017-08-28T04:22:01.249Z,46.57
2017-08-28T04:24:28.875Z,51.77
2017-08-28T04:26:56.454Z,54.30
2017-08-28T04:29:24.065Z,48.80
2017-08-28T04:31:51.668Z,46.60
2017-08-28T04:34:19.243Z,53.20
2017-08-28T04:36:46.869Z,46.37
2017-08-28T04:39:14.465Z,43.23
2017-08-28T04:41:42.089Z,50.27
2017-08-28T04:44:09.720Z,49.40
2017-08-28T04:46:37.308Z,51.50
2017-08-28T04:49:05.452Z,52.13
2017-08-28T04:51:33.026Z,50.90
2017-08-28T04:54:00.621Z,55.93
2017-08-28T04:56:28.209Z,49.83
2017-08-28T04:58:55.816Z,53.70
2017-08-28T05:01:23.373Z,50.27
2017-08-28T05:03:50.946Z,50.33
2017-08-28T05:06:18.536Z,62.10
2017-08-28T05:08:46.136Z,55.13
2017-08-28T05:11:13.746Z,57.07
2017-08-28T05:13:41.341Z,64.40
2017-08-28T05:16:08.907Z,59.70
2017-08-28T05:18:36.494Z,62.60
2017-08-28T05:21:04.077Z,58.83
2017-08-28T05:23:31.634Z,60.20
2017-08-28T05:25:59.228Z,63.53
2017-08-28T05:28:26.806Z,70.17
2017-08-28T05:30:54.435Z,62.10
2017-08-28T05:33:21.988Z,61.77
2017-08-28T05:35:50.315Z,61.97
2017-08-28T05:38:17.923Z,62.30
2017-08-28T05:40:46.043Z,59.60
2017-08-28T05:43:13.632Z,75.40
2017-08-28T05:45:41.199Z,68.60
2017-08-28T05:48:08.779Z,69.83
2017-08-28T05:50:36.408Z,62.07
2017-08-28T05:53:04.024Z,64.30
2017-08-28T05:55:31.596Z,57.13
2017-08-28T05:57:59.197Z,62.63
2017-08-28T06:00:26.807Z,60.03
2017-08-28T06:02:54.374Z,56.67
2017-08-28T06:05:21.952Z,59.90
2017-08-28T06:07:49.529Z,62.07
2017-08-28T06:10:17.123Z,59.57
2017-08-28T06:12:44.722Z,63.97
2017-08-28T06:15:12.312Z,56.70
2017-08-28T06:17:39.894Z,66.40
2017-08-28T06:20:07.510Z,57.23
2017-08-28T06:22:35.085Z,59.00
2017-08-28T06:25:02.690Z,60.70
2017-08-28T06:27:30.298Z,52.40
2017-08-28T06:29:58.659Z,51.90
2017-08-28T06:32:26.239Z,45.20
2017-08-28T06:34:53.823Z,45.23
2017-08-28T06:37:22.251Z,49.30
2017-08-28T06:39:49.849Z,53.50
2017-08-28T06:42:17.497Z,49.73
2017-08-28T06:44:45.810Z,50.50
2017-08-28T06:47:13.401Z,48.90
2017-08-28T06:49:40.976Z,52.00
2017-08-28T06:52:08.578Z,47.83
2017-08-28T06:54:36.143Z,44.83
2017-08-28T06:57:03.743Z,47.20
2017-08-28T06:59:31.616Z,49.07
2017-08-28T07:01:59.178Z,44.87
2017-08-28T07:04:26.803Z,46.50
2017-08-28T07:06:54.397Z,48.30
2017-08-28T07:09:22.069Z,52.77
2017-08-28T07:11:49.674Z,59.53
2017-08-28T07:14:18.461Z,39.70
2017-08-28T07:16:46.834Z,44.77
2017-08-28T07:19:14.418Z,41.67
2017-08-28T07:21:42.700Z,36.37
2017-08-28T07:24:10.307Z,36.93
2017-08-28T07:26:37.878Z,32.80
2017-08-28T07:29:05.458Z,30.80
2017-08-28T07:31:33.057Z,29.43
2017-08-28T07:34:02.631Z,26.93
2017-08-28T07:36:30.307Z,27.30
2017-08-28T07:38:57.906Z,25.90
2017-08-28T07:41:25.489Z,26.60
2017-08-28T07:43:58.055Z,25.13
2017-08-28T07:46:25.677Z,25.10
2017-08-28T07:48:53.235Z,25.57
2017-08-28T07:51:20.827Z,26.23
2017-08-28T07:53:48.441Z,25.57
2017-08-28T07:56:16.045Z,23.80
2017-08-28T07:58:43.686Z,22.53
2017-08-28T08:01:11.265Z,26.60
2017-08-28T08:03:38.864Z,23.20
2017-08-28T08:06:07.730Z,32.40
2017-08-28T08:08:35.458Z,22.13
2017-08-28T08:11:05.683Z,21.53
2017-08-28T08:13:33.384Z,23.00
2017-08-28T08:16:01.001Z,22.53
2017-08-28T08:18:28.607Z,23.97
2017-08-28T08:20:56.187Z,23.90
2017-08-28T08:23:23.795Z,22.83
2017-08-28T08:25:51.435Z,20.77
2017-08-28T08:28:19.031Z,20.07
2017-08-28T08:30:46.633Z,20.33
2017-08-28T08:33:14.229Z,20.43
2017-08-28T08:35:41.826Z,24.77
2017-08-28T08:38:09.404Z,20.57
2017-08-28T08:40:37.011Z,23.07
2017-08-28T08:43:04.601Z,19.70
2017-08-28T08:45:32.179Z,20.30
2017-08-28T08:47:59.783Z,20.50
2017-08-28T08:50:27.372Z,19.73
2017-08-28T08:52:54.996Z,20.43
2017-08-28T08:55:22.575Z,19.43
2017-08-28T08:57:50.178Z,18.73
2017-08-28T09:00:17.933Z,25.13
2017-08-28T09:02:45.585Z,21.60
2017-08-28T09:05:13.200Z,17.70
2017-08-28T09:07:40.763Z,17.93
2017-08-28T09:10:08.392Z,17.87
2017-08-28T09:12:36.007Z,17.97
2017-08-28T09:15:03.630Z,19.30
2017-08-28T09:17:31.223Z,17.80
2017-08-28T09:19:58.820Z,17.23
2017-08-28T09:22:26.419Z,17.90
2017-08-28T09:24:53.995Z,16.57
2017-08-28T09:27:21.590Z,16.03
2017-08-28T09:29:49.188Z,16.50
2017-08-28T09:32:16.789Z,23.43
2017-08-28T09:34:44.360Z,17.00
2017-08-28T09:37:11.959Z,21.93
2017-08-28T09:39:40.512Z,20.30
2017-08-28T09:42:08.111Z,15.47
2017-08-28T09:44:35.742Z,16.10
2017-08-28T09:47:05.016Z,16.20
2017-08-28T09:49:33.384Z,19.20
2017-08-28T09:52:00.970Z,14.80
2017-08-28T09:54:28.598Z,14.37
2017-08-28T09:56:56.163Z,15.00
2017-08-28T09:59:23.785Z,16.50
2017-08-28T10:01:51.342Z,15.00
2017-08-28T10:04:18.920Z,14.60
2017-08-28T10:06:46.519Z,14.20
2017-08-28T10:09:14.125Z,18.53
2017-08-28T10:11:41.735Z,14.63
2017-08-28T10:14:09.302Z,16.57
2017-08-28T10:16:36.927Z,14.97
2017-08-28T10:19:04.522Z,15.30
2017-08-28T10:21:32.100Z,14.70
2017-08-28T10:23:59.676Z,14.27
2017-08-28T10:26:27.325Z,17.60
2017-08-28T10:28:54.934Z,14.17
2017-08-28T10:31:22.530Z,15.20
2017-08-28T10:33:50.155Z,14.07
2017-08-28T10:36:17.737Z,15.87
2017-08-28T10:38:45.318Z,13.23
2017-08-28T10:41:12.882Z,12.90
2017-08-28T10:43:41.350Z,13.70
2017-08-28T10:46:08.935Z,13.37
2017-08-28T10:48:36.560Z,12.50
2017-08-28T10:51:04.132Z,13.37
2017-08-28T10:53:31.727Z,12.10
2017-08-28T10:55:59.988Z,11.17
2017-08-28T10:58:27.591Z,10.90
2017-08-28T11:00:55.538Z,9.70
2017-08-28T11:03:23.112Z,9.83
2017-08-28T11:05:50.707Z,10.57
2017-08-28T11:08:18.316Z,10.50
2017-08-28T11:10:45.918Z,10.03
2017-08-28T11:13:13.490Z,9.33
2017-08-28T11:15:41.050Z,9.33
2017-08-28T11:18:08.729Z,8.93
2017-08-28T11:20:41.535Z,8.60
2017-08-28T11:23:09.570Z,9.23
2017-08-28T11:25:38.860Z,8.60
2017-08-28T11:28:06.458Z,8.03
2017-08-28T11:30:34.023Z,7.93
2017-08-28T11:33:01.593Z,8.37
2017-08-28T11:35:29.238Z,9.33
2017-08-28T11:37:56.828Z,9.63
2017-08-28T11:40:24.431Z,8.10
2017-08-28T11:42:51.998Z,11.60
2017-08-28T11:45:19.570Z,8.40
2017-08-28T11:47:47.203Z,7.83
2017-08-28T11:50:14.789Z,8.73
2017-08-28T11:52:42.392Z,7.93
2017-08-28T11:55:09.978Z,8.67
2017-08-28T11:57:37.562Z,8.13
2017-08-28T12:00:05.196Z,8.10
2017-08-28T12:02:33.362Z,8.20
2017-08-28T12:05:00.953Z,8.47
2017-08-28T12:07:28.554Z,8.60
2017-08-28T12:09:56.127Z,7.70
2017-08-28T12:12:23.713Z,8.27
2017-08-28T12:14:52.171Z,8.30
2017-08-28T12:17:19.760Z,7.37
2017-08-28T12:19:47.323Z,8.50
2017-08-28T12:22:14.934Z,7.90
2017-08-28T12:24:42.487Z,8.00
2017-08-28T12:27:11.258Z,8.50
2017-08-28T12:29:38.854Z,7.60
2017-08-28T12:32:08.417Z,8.50
2017-08-28T12:34:36.033Z,9.20
2017-08-28T12:37:03.607Z,8.40
2017-08-28T12:39:31.199Z,8.40
2017-08-28T12:42:00.128Z,8.40
2017-08-28T12:44:27.699Z,7.83
2017-08-28T12:46:55.320Z,7.53
2017-08-28T12:49:22.876Z,7.87
2017-08-28T12:51:50.443Z,7.87
2017-08-28T12:54:18.022Z,8.00
2017-08-28T12:56:45.617Z,7.47
2017-08-28T12:59:13.247Z,6.73
2017-08-28T13:01:40.804Z,8.10
2017-08-28T13:04:08.411Z,7.37
2017-08-28T13:06:36.007Z,6.70
2017-08-28T13:09:03.630Z,6.90
2017-08-28T13:11:31.199Z,6.70
2017-08-28T13:13:58.759Z,6.60
2017-08-28T13:16:27.713Z,7.07
2017-08-28T13:18:55.304Z,7.23
2017-08-28T13:21:25.650Z,7.43
2017-08-28T13:23:53.227Z,13.27
2017-08-28T13:26:20.835Z,7.30
2017-08-28T13:28:48.423Z,7.60
2017-08-28T13:31:16.035Z,7.47
2017-08-28T13:33:45.011Z,8.10
2017-08-28T13:36:12.580Z,8.00
2017-08-28T13:38:40.213Z,7.70
2017-08-28T13:41:07.767Z,7.17
2017-08-28T13:43:35.339Z,7.00
2017-08-28T13:46:02.936Z,7.50
2017-08-28T13:48:30.534Z,9.70
2017-08-28T13:50:58.130Z,10.60
2017-08-28T13:53:25.688Z,9.90
2017-08-28T13:55:53.269Z,9.73
2017-08-28T13:58:20.856Z,10.60
2017-08-28T14:00:49.238Z,9.30
2017-08-28T14:03:16.832Z,9.80
2017-08-28T14:08:19.196Z,12.20
2017-08-28T14:10:46.766Z,11.93
2017-08-28T14:13:14.421Z,12.27
2017-08-28T14:15:42.010Z,12.00
2017-08-28T14:18:09.612Z,11.27
2017-08-28T14:20:37.248Z,12.90
2017-08-28T14:23:04.914Z,13.60
2017-08-28T14:25:37.376Z,11.63
2017-08-28T14:28:05.040Z,11.50
2017-08-28T14:30:32.623Z,12.40
2017-08-28T14:33:00.207Z,13.07
2017-08-28T14:35:28.797Z,12.03
2017-08-28T14:37:56.611Z,12.90
2017-08-28T14:40:24.211Z,11.47
2017-08-28T14:42:51.770Z,11.90
2017-08-28T14:45:19.356Z,12.70
2017-08-28T14:47:46.938Z,11.20
2017-08-28T14:50:15.697Z,11.10
2017-08-28T14:52:43.372Z,11.07
2017-08-28T14:55:11.395Z,11.27
2017-08-28T14:57:39.310Z,12.10
2017-08-28T15:00:09.645Z,11.33
2017-08-28T15:02:37.562Z,10.53
2017-08-28T15:05:05.356Z,11.57
2017-08-28T15:07:33.117Z,10.23
2017-08-28T15:10:00.749Z,10.10
2017-08-28T15:12:30.170Z,10.53
2017-08-28T15:14:57.756Z,10.10
2017-08-28T15:17:25.306Z,10.27
2017-08-28T15:19:52.869Z,10.17
2017-08-28T15:22:20.479Z,10.07
2017-08-28T15:24:48.441Z,9.67
2017-08-28T15:27:16.012Z,10.57
2017-08-28T15:29:43.631Z,9.80
2017-08-28T15:32:11.216Z,10.10
2017-08-28T15:34:38.790Z,10.00
2017-08-28T15:37:06.410Z,10.67
2017-08-28T15:39:33.971Z,10.80
2017-08-28T15:42:01.552Z,10.30
2017-08-28T15:44:29.113Z,12.47
2017-08-28T15:46:56.704Z,12.40
2017-08-28T15:49:24.282Z,12.10
2017-08-28T15:51:51.900Z,10.23
2017-08-28T15:54:19.480Z,10.27
2017-08-28T15:56:47.071Z,11.40
2017-08-28T15:59:14.663Z,10.43
2017-08-28T16:01:42.254Z,11.90
2017-08-28T16:04:09.883Z,15.27
2017-08-28T16:06:37.456Z,11.17
2017-08-28T16:09:05.067Z,10.97
2017-08-28T16:11:32.666Z,10.07
2017-08-28T16:14:00.265Z,11.23
2017-08-28T16:16:28.663Z,9.27
2017-08-28T16:18:56.267Z,10.77
2017-08-28T16:21:23.874Z,12.13
2017-08-28T16:23:51.494Z,10.63
2017-08-28T16:26:19.054Z,15.00
2017-08-28T16:28:46.639Z,10.03
2017-08-28T16:31:15.191Z,10.17
2017-08-28T16:33:42.819Z,10.17
2017-08-28T16:36:10.471Z,10.73
2017-08-28T16:38:38.093Z,9.47
2017-08-28T16:41:05.659Z,9.30
2017-08-28T16:43:33.300Z,10.17
2017-08-28T16:46:00.869Z,9.70
2017-08-28T16:48:28.427Z,10.20
2017-08-28T16:50:56.009Z,10.07
2017-08-28T16:53:24.542Z,11.43
2017-08-28T16:55:52.144Z,12.00
2017-08-28T16:58:19.748Z,9.40
2017-08-28T17:00:47.349Z,10.73
2017-08-28T17:03:14.954Z,11.23
2017-08-28T17:05:42.572Z,9.27
2017-08-28T17:08:10.165Z,12.53
2017-08-28T17:10:37.758Z,10.27
2017-08-28T17:13:05.354Z,9.60
2017-08-28T17:15:32.940Z,10.53
2017-08-28T17:18:00.523Z,10.57
2017-08-28T17:20:28.087Z,10.83
2017-08-28T17:22:55.718Z,10.23
2017-08-28T17:25:23.378Z,11.40
2017-08-28T17:27:51.025Z,12.77
2017-08-28T17:30:18.636Z,21.67
2017-08-28T17:32:46.226Z,11.47
2017-08-28T17:35:13.832Z,10.63
2017-08-28T17:37:41.391Z,11.30
2017-08-28T17:40:08.993Z,11.27
2017-08-28T17:42:37.839Z,15.03
2017-08-28T17:45:05.497Z,10.60
2017-08-28T17:47:33.096Z,11.17
2017-08-28T17:50:00.685Z,11.50
2017-08-28T17:52:28.271Z,11.60
2017-08-28T17:54:55.827Z,10.57
2017-08-28T17:57:23.411Z,11.77
2017-08-28T17:59:51.130Z,12.80
2017-08-28T18:02:18.704Z,11.53
2017-08-28T18:04:46.264Z,11.77
2017-08-28T18:07:14.588Z,11.80
2017-08-28T18:09:44.190Z,11.77
2017-08-28T18:12:11.752Z,16.63
2017-08-28T18:14:39.351Z,11.87
2017-08-28T18:17:06.951Z,12.73
2017-08-28T18:19:34.600Z,12.53
2017-08-28T18:22:02.771Z,22.67
2017-08-28T18:24:30.354Z,14.73
2017-08-28T18:26:57.957Z,12.00
2017-08-28T18:29:25.570Z,11.17
2017-08-28T18:31:53.187Z,11.70
2017-08-28T18:34:20.795Z,11.93
2017-08-28T18:36:48.419Z,83.13
2017-08-28T18:39:16.021Z,24.13
2017-08-28T18:41:43.622Z,12.90
2017-08-28T18:44:11.238Z,12.90
2017-08-28T18:46:39.859Z,13.30
2017-08-28T18:49:07.481Z,12.33
2017-08-28T18:51:36.004Z,13.10
2017-08-28T18:54:03.575Z,13.67
2017-08-28T18:56:32.139Z,13.17
2017-08-28T18:58:59.729Z,14.20
2017-08-28T19:01:27.336Z,14.47
2017-08-28T19:03:54.923Z,14.50
2017-08-28T19:06:22.535Z,14.37
2017-08-28T19:08:50.152Z,14.23
2017-08-28T19:11:17.755Z,13.90
2017-08-28T19:13:45.396Z,17.20
2017-08-28T19:16:13.961Z,13.10
2017-08-28T19:18:41.625Z,15.83
2017-08-28T19:21:09.221Z,16.10
2017-08-28T19:23:36.827Z,15.50
2017-08-28T19:26:04.479Z,14.40
2017-08-28T19:28:32.059Z,15.83
2017-08-28T19:30:59.654Z,16.87
2017-08-28T19:33:41.574Z,15.77
2017-08-28T19:36:09.171Z,21.27
2017-08-28T19:38:36.743Z,16.37
2017-08-28T19:41:04.360Z,16.27
2017-08-28T19:43:31.950Z,16.13
2017-08-28T19:45:59.552Z,17.10
2017-08-28T19:48:27.136Z,16.83
2017-08-28T19:50:54.745Z,16.73
2017-08-28T19:53:22.384Z,16.73
2017-08-28T19:55:49.977Z,16.60
2017-08-28T19:58:17.960Z,18.50
2017-08-28T20:00:45.565Z,18.73
2017-08-28T20:03:13.180Z,16.77
2017-08-28T20:05:40.761Z,19.20
2017-08-28T20:08:08.364Z,16.53
2017-08-28T20:10:35.964Z,17.40
2017-08-28T20:13:03.566Z,17.53
2017-08-28T20:15:31.524Z,16.43
2017-08-28T20:17:59.091Z,17.60
2017-08-28T20:20:26.759Z,16.37
2017-08-28T20:22:54.350Z,17.53
2017-08-28T20:25:21.956Z,16.17
2017-08-28T20:27:49.567Z,15.90
2017-08-28T20:30:17.131Z,15.77
2017-08-28T20:32:44.715Z,17.30
2017-08-28T20:35:12.302Z,18.13
2017-08-28T20:37:39.887Z,16.93
2017-08-28T20:40:07.489Z,17.43
2017-08-28T20:42:35.103Z,18.00
2017-08-28T20:45:02.697Z,16.83
2017-08-28T20:47:30.344Z,17.67
2017-08-28T20:49:57.931Z,17.40
2017-08-28T20:52:25.506Z,24.13
2017-08-28T20:54:53.131Z,17.40
2017-08-28T20:57:20.712Z,17.67
2017-08-28T20:59:48.299Z,21.20
2017-08-28T21:02:15.887Z,17.10
2017-08-28T21:04:43.460Z,18.33
2017-08-28T21:07:11.099Z,18.27
2017-08-28T21:09:38.681Z,18.57
2017-08-28T21:12:07.105Z,22.03
2017-08-28T21:14:35.625Z,19.87
2017-08-28T21:17:03.234Z,17.93
2017-08-28T21:19:30.850Z,18.77
2017-08-28T21:21:58.462Z,18.50
2017-08-28T21:24:26.473Z,18.77
2017-08-28T21:26:54.031Z,18.63
2017-08-28T21:29:21.676Z,18.23
2017-08-28T21:31:49.275Z,18.33
2017-08-28T21:34:16.858Z,18.73
2017-08-28T21:36:44.419Z,20.50
2017-08-28T21:39:11.999Z,17.93
2017-08-28T21:41:39.612Z,18.50
2017-08-28T21:44:07.225Z,20.53
2017-08-28T21:46:34.825Z,19.83
2017-08-28T21:49:02.395Z,19.67
2017-08-28T21:51:29.974Z,19.87
2017-08-28T21:53:57.598Z,19.40
2017-08-28T21:56:25.185Z,20.37
2017-08-28T21:58:53.629Z,20.03
2017-08-28T22:01:21.259Z,20.00
2017-08-28T22:03:48.842Z,19.00
2017-08-28T22:06:16.497Z,20.70
2017-08-28T22:08:44.113Z,20.77
2017-08-28T22:11:11.717Z,23.43
2017-08-28T22:13:39.305Z,25.33
2017-08-28T22:16:06.879Z,20.27
2017-08-28T22:18:36.108Z,19.30
2017-08-28T22:21:03.676Z,20.10
2017-08-28T22:23:31.286Z,20.70
2017-08-28T22:25:58.899Z,20.57
2017-08-28T22:28:26.474Z,20.60
2017-08-28T22:30:54.069Z,20.27
2017-08-28T22:33:21.675Z,21.47
2017-08-28T22:35:49.280Z,21.87
2017-08-28T22:38:16.868Z,21.13
2017-08-28T22:40:44.495Z,25.10
2017-08-28T22:43:12.048Z,22.40
2017-08-28T22:45:39.658Z,21.17
2017-08-28T22:48:07.245Z,21.40
2017-08-28T22:50:34.819Z,20.27
2017-08-28T22:53:02.408Z,20.70
2017-08-28T22:55:29.986Z,21.77
2017-08-28T22:57:57.545Z,21.90
2017-08-28T23:00:25.121Z,22.30
2017-08-28T23:02:52.710Z,21.77
2017-08-28T23:05:20.290Z,22.70
2017-08-28T23:07:47.862Z,21.50
2017-08-28T23:10:15.455Z,23.90
2017-08-28T23:12:43.034Z,22.30
2017-08-28T23:15:10.617Z,23.37
2017-08-28T23:17:38.197Z,22.43
2017-08-28T23:20:05.780Z,22.17
2017-08-28T23:22:33.366Z,22.00
2017-08-28T23:25:00.915Z,21.70
2017-08-28T23:27:28.529Z,21.00
2017-08-28T23:29:56.099Z,21.60
2017-08-28T23:32:23.664Z,25.50
2017-08-28T23:34:51.250Z,22.37
2017-08-28T23:37:18.830Z,21.57
2017-08-28T23:39:46.400Z,25.47
2017-08-28T23:42:13.989Z,23.83
2017-08-28T23:44:41.571Z,21.87
2017-08-28T23:47:09.181Z,21.83
2017-08-28T23:49:36.749Z,27.33
2017-08-28T23:52:04.330Z,23.00
2017-08-28T23:54:31.918Z,24.70
2017-08-28T23:56:59.479Z,22.93
2017-08-28T23:59:27.072Z,23.63
